sensor_id;sensor_type;location;lat;lon;timestamp;P1;durP1;ratioP1;P2;durP2;ratioP2
36443;SDS011;24692;45.642;13.806;2024-01-06T00:01:48;6.90;;;3.27;;
36443;SDS011;24692;45.642;13.806;2024-01-06T00:04:13;9.33;;;3.43;;
36443;SDS011;24692;45.642;13.806;2024-01-06T00:06:39;10.20;;;4.07;;
36443;SDS011;24692;45.642;13.806;2024-01-06T00:09:04;13.93;;;4.20;;
36443;SDS011;24692;45.642;13.806;2024-01-06T00:11:30;9.17;;;4.17;;
36443;SDS011;24692;45.642;13.806;2024-01-06T00:13:56;10.47;;;3.87;;
36443;SDS011;24692;45.642;13.806;2024-01-06T00:16:21;14.60;;;4.43;;
36443;SDS011;24692;45.642;13.806;2024-01-06T00:18:47;19.23;;;6.17;;
36443;SDS011;24692;45.642;13.806;2024-01-06T00:21:13;11.67;;;4.63;;
36443;SDS011;24692;45.642;13.806;2024-01-06T00:23:42;20.90;;;5.40;;
36443;SDS011;24692;45.642;13.806;2024-01-06T00:26:09;17.30;;;4.47;;
36443;SDS011;24692;45.642;13.806;2024-01-06T00:28:35;16.90;;;5.37;;
36443;SDS011;24692;45.642;13.806;2024-01-06T00:31:00;17.90;;;5.27;;
36443;SDS011;24692;45.642;13.806;2024-01-06T00:33:26;14.97;;;4.97;;
36443;SDS011;24692;45.642;13.806;2024-01-06T00:35:53;19.57;;;5.33;;
36443;SDS011;24692;45.642;13.806;2024-01-06T00:38:20;13.70;;;4.83;;
36443;SDS011;24692;45.642;13.806;2024-01-06T00:40:46;18.20;;;5.23;;
36443;SDS011;24692;45.642;13.806;2024-01-06T00:43:11;19.20;;;5.57;;
36443;SDS011;24692;45.642;13.806;2024-01-06T00:45:37;14.83;;;4.43;;
36443;SDS011;24692;45.642;13.806;2024-01-06T00:48:03;12.63;;;4.80;;
36443;SDS011;24692;45.642;13.806;2024-01-06T00:50:29;12.30;;;4.70;;
36443;SDS011;24692;45.642;13.806;2024-01-06T00:52:54;10.07;;;4.10;;
36443;SDS011;24692;45.642;13.806;2024-01-06T00:55:21;15.13;;;4.83;;
36443;SDS011;24692;45.642;13.806;2024-01-06T00:57:47;11.57;;;4.43;;
36443;SDS011;24692;45.642;13.806;2024-01-06T01:00:13;15.93;;;4.80;;
36443;SDS011;24692;45.642;13.806;2024-01-06T01:02:39;15.77;;;4.77;;
36443;SDS011;24692;45.642;13.806;2024-01-06T01:05:05;10.17;;;4.23;;
36443;SDS011;24692;45.642;13.806;2024-01-06T01:07:32;14.60;;;4.70;;
36443;SDS011;24692;45.642;13.806;2024-01-06T01:09:58;18.07;;;5.17;;
36443;SDS011;24692;45.642;13.806;2024-01-06T01:12:24;15.47;;;4.73;;
36443;SDS011;24692;45.642;13.806;2024-01-06T01:14:50;14.60;;;4.60;;
36443;SDS011;24692;45.642;13.806;2024-01-06T01:17:16;14.47;;;4.70;;
36443;SDS011;24692;45.642;13.806;2024-01-06T01:19:42;14.97;;;4.80;;
36443;SDS011;24692;45.642;13.806;2024-01-06T01:22:08;17.87;;;5.43;;
36443;SDS011;24692;45.642;13.806;2024-01-06T01:24:34;18.37;;;5.33;;
36443;SDS011;24692;45.642;13.806;2024-01-06T01:26:59;14.00;;;4.70;;
36443;SDS011;24692;45.642;13.806;2024-01-06T01:29:25;12.60;;;4.70;;
36443;SDS011;24692;45.642;13.806;2024-01-06T01:31:51;17.87;;;7.00;;
36443;SDS011;24692;45.642;13.806;2024-01-06T01:34:17;12.73;;;4.70;;
36443;SDS011;24692;45.642;13.806;2024-01-06T01:36:42;17.50;;;5.80;;
36443;SDS011;24692;45.642;13.806;2024-01-06T01:39:08;13.10;;;5.10;;
36443;SDS011;24692;45.642;13.806;2024-01-06T01:41:34;15.00;;;5.43;;
36443;SDS011;24692;45.642;13.806;2024-01-06T01:44:00;15.53;;;5.07;;
36443;SDS011;24692;45.642;13.806;2024-01-06T01:46:26;15.80;;;4.60;;
36443;SDS011;24692;45.642;13.806;2024-01-06T01:48:54;14.73;;;5.27;;
36443;SDS011;24692;45.642;13.806;2024-01-06T01:51:20;14.37;;;5.30;;
36443;SDS011;24692;45.642;13.806;2024-01-06T01:53:47;14.20;;;4.70;;
36443;SDS011;24692;45.642;13.806;2024-01-06T01:56:13;13.27;;;4.60;;
36443;SDS011;24692;45.642;13.806;2024-01-06T01:58:39;15.17;;;4.70;;
36443;SDS011;24692;45.642;13.806;2024-01-06T02:01:06;17.67;;;5.77;;
36443;SDS011;24692;45.642;13.806;2024-01-06T02:03:33;14.33;;;4.73;;
36443;SDS011;24692;45.642;13.806;2024-01-06T02:06:00;14.53;;;4.70;;
36443;SDS011;24692;45.642;13.806;2024-01-06T02:08:26;14.40;;;4.13;;
36443;SDS011;24692;45.642;13.806;2024-01-06T02:10:53;13.53;;;4.60;;
36443;SDS011;24692;45.642;13.806;2024-01-06T02:13:20;11.07;;;4.63;;
36443;SDS011;24692;45.642;13.806;2024-01-06T02:15:46;9.73;;;4.07;;
36443;SDS011;24692;45.642;13.806;2024-01-06T02:18:12;14.30;;;4.27;;
36443;SDS011;24692;45.642;13.806;2024-01-06T02:20:37;9.83;;;4.23;;
36443;SDS011;24692;45.642;13.806;2024-01-06T02:23:06;12.47;;;4.27;;
36443;SDS011;24692;45.642;13.806;2024-01-06T02:25:32;13.83;;;4.60;;
36443;SDS011;24692;45.642;13.806;2024-01-06T02:27:58;15.37;;;5.03;;
36443;SDS011;24692;45.642;13.806;2024-01-06T02:30:24;9.93;;;4.20;;
36443;SDS011;24692;45.642;13.806;2024-01-06T02:32:49;13.47;;;4.10;;
36443;SDS011;24692;45.642;13.806;2024-01-06T02:35:15;11.73;;;3.93;;
36443;SDS011;24692;45.642;13.806;2024-01-06T02:37:41;13.07;;;4.60;;
36443;SDS011;24692;45.642;13.806;2024-01-06T02:40:06;9.80;;;4.40;;
36443;SDS011;24692;45.642;13.806;2024-01-06T02:42:33;9.80;;;4.00;;
36443;SDS011;24692;45.642;13.806;2024-01-06T02:44:58;10.43;;;4.40;;
36443;SDS011;24692;45.642;13.806;2024-01-06T02:47:24;9.73;;;4.60;;
36443;SDS011;24692;45.642;13.806;2024-01-06T02:49:49;13.90;;;4.20;;
36443;SDS011;24692;45.642;13.806;2024-01-06T02:52:15;16.03;;;4.00;;
36443;SDS011;24692;45.642;13.806;2024-01-06T02:54:41;13.03;;;3.93;;
36443;SDS011;24692;45.642;13.806;2024-01-06T02:57:07;9.40;;;3.67;;
36443;SDS011;24692;45.642;13.806;2024-01-06T02:59:32;10.73;;;4.03;;
36443;SDS011;24692;45.642;13.806;2024-01-06T03:01:59;10.60;;;3.67;;
36443;SDS011;24692;45.642;13.806;2024-01-06T03:04:26;9.77;;;3.57;;
36443;SDS011;24692;45.642;13.806;2024-01-06T03:06:52;8.20;;;3.67;;
36443;SDS011;24692;45.642;13.806;2024-01-06T03:09:18;12.37;;;3.67;;
36443;SDS011;24692;45.642;13.806;2024-01-06T03:11:44;10.50;;;3.80;;
36443;SDS011;24692;45.642;13.806;2024-01-06T03:14:10;9.33;;;3.73;;
36443;SDS011;24692;45.642;13.806;2024-01-06T03:16:36;10.87;;;4.03;;
36443;SDS011;24692;45.642;13.806;2024-01-06T03:19:02;10.30;;;4.03;;
36443;SDS011;24692;45.642;13.806;2024-01-06T03:21:28;13.10;;;4.20;;
36443;SDS011;24692;45.642;13.806;2024-01-06T03:23:54;11.23;;;4.30;;
36443;SDS011;24692;45.642;13.806;2024-01-06T03:26:20;10.67;;;4.33;;
36443;SDS011;24692;45.642;13.806;2024-01-06T03:28:48;11.53;;;4.43;;
36443;SDS011;24692;45.642;13.806;2024-01-06T03:31:14;11.73;;;4.00;;
36443;SDS011;24692;45.642;13.806;2024-01-06T03:33:40;13.13;;;4.57;;
36443;SDS011;24692;45.642;13.806;2024-01-06T03:36:06;14.27;;;3.97;;
36443;SDS011;24692;45.642;13.806;2024-01-06T03:38:33;11.47;;;4.47;;
36443;SDS011;24692;45.642;13.806;2024-01-06T03:40:58;9.17;;;4.40;;
36443;SDS011;24692;45.642;13.806;2024-01-06T03:43:24;10.80;;;4.27;;
36443;SDS011;24692;45.642;13.806;2024-01-06T03:45:50;7.87;;;3.67;;
36443;SDS011;24692;45.642;13.806;2024-01-06T03:48:16;8.70;;;3.90;;
36443;SDS011;24692;45.642;13.806;2024-01-06T03:50:41;10.97;;;3.90;;
36443;SDS011;24692;45.642;13.806;2024-01-06T03:53:07;9.23;;;4.07;;
36443;SDS011;24692;45.642;13.806;2024-01-06T03:55:33;7.80;;;3.90;;
36443;SDS011;24692;45.642;13.806;2024-01-06T03:57:58;6.60;;;3.57;;
36443;SDS011;24692;45.642;13.806;2024-01-06T04:00:25;10.30;;;3.97;;
36443;SDS011;24692;45.642;13.806;2024-01-06T04:02:51;9.23;;;3.70;;
36443;SDS011;24692;45.642;13.806;2024-01-06T04:05:17;12.13;;;4.03;;
36443;SDS011;24692;45.642;13.806;2024-01-06T04:07:42;7.53;;;3.73;;
36443;SDS011;24692;45.642;13.806;2024-01-06T04:10:08;8.47;;;3.60;;
36443;SDS011;24692;45.642;13.806;2024-01-06T04:12:34;11.33;;;3.70;;
36443;SDS011;24692;45.642;13.806;2024-01-06T04:14:59;9.30;;;3.77;;
36443;SDS011;24692;45.642;13.806;2024-01-06T04:17:25;7.97;;;3.77;;
36443;SDS011;24692;45.642;13.806;2024-01-06T04:19:52;10.73;;;3.80;;
36443;SDS011;24692;45.642;13.806;2024-01-06T04:22:18;8.07;;;3.60;;
36443;SDS011;24692;45.642;13.806;2024-01-06T04:24:44;8.27;;;4.23;;
36443;SDS011;24692;45.642;13.806;2024-01-06T04:27:10;8.17;;;3.40;;
36443;SDS011;24692;45.642;13.806;2024-01-06T04:29:35;9.07;;;3.87;;
36443;SDS011;24692;45.642;13.806;2024-01-06T04:32:01;11.97;;;3.87;;
36443;SDS011;24692;45.642;13.806;2024-01-06T04:34:27;10.10;;;3.67;;
36443;SDS011;24692;45.642;13.806;2024-01-06T04:36:53;8.90;;;4.07;;
36443;SDS011;24692;45.642;13.806;2024-01-06T04:39:19;8.33;;;3.33;;
36443;SDS011;24692;45.642;13.806;2024-01-06T04:41:44;7.97;;;3.50;;
36443;SDS011;24692;45.642;13.806;2024-01-06T04:44:10;5.00;;;3.00;;
36443;SDS011;24692;45.642;13.806;2024-01-06T04:46:36;7.93;;;3.27;;
36443;SDS011;24692;45.642;13.806;2024-01-06T04:49:01;5.93;;;3.00;;
36443;SDS011;24692;45.642;13.806;2024-01-06T04:51:27;5.07;;;2.80;;
36443;SDS011;24692;45.642;13.806;2024-01-06T04:53:53;7.13;;;3.17;;
36443;SDS011;24692;45.642;13.806;2024-01-06T04:56:19;6.73;;;2.63;;
36443;SDS011;24692;45.642;13.806;2024-01-06T04:58:44;7.90;;;2.90;;
36443;SDS011;24692;45.642;13.806;2024-01-06T05:01:10;6.13;;;2.70;;
36443;SDS011;24692;45.642;13.806;2024-01-06T05:03:36;5.47;;;2.63;;
36443;SDS011;24692;45.642;13.806;2024-01-06T05:06:01;6.37;;;2.60;;
36443;SDS011;24692;45.642;13.806;2024-01-06T05:08:27;6.33;;;2.60;;
36443;SDS011;24692;45.642;13.806;2024-01-06T05:10:55;8.70;;;2.97;;
36443;SDS011;24692;45.642;13.806;2024-01-06T05:13:21;5.90;;;2.83;;
36443;SDS011;24692;45.642;13.806;2024-01-06T05:15:47;10.30;;;3.20;;
36443;SDS011;24692;45.642;13.806;2024-01-06T05:18:12;8.80;;;3.40;;
36443;SDS011;24692;45.642;13.806;2024-01-06T05:20:38;7.00;;;2.97;;
36443;SDS011;24692;45.642;13.806;2024-01-06T05:23:06;7.50;;;3.63;;
36443;SDS011;24692;45.642;13.806;2024-01-06T05:25:32;10.47;;;3.47;;
36443;SDS011;24692;45.642;13.806;2024-01-06T05:27:57;9.17;;;3.20;;
36443;SDS011;24692;45.642;13.806;2024-01-06T05:30:23;8.53;;;3.10;;
36443;SDS011;24692;45.642;13.806;2024-01-06T05:32:49;8.90;;;3.50;;
36443;SDS011;24692;45.642;13.806;2024-01-06T05:35:17;8.87;;;3.17;;
36443;SDS011;24692;45.642;13.806;2024-01-06T05:37:43;9.00;;;3.50;;
36443;SDS011;24692;45.642;13.806;2024-01-06T05:40:09;8.10;;;3.33;;
36443;SDS011;24692;45.642;13.806;2024-01-06T05:42:34;5.77;;;3.37;;
36443;SDS011;24692;45.642;13.806;2024-01-06T05:45:00;9.17;;;4.07;;
36443;SDS011;24692;45.642;13.806;2024-01-06T05:47:26;10.27;;;3.50;;
36443;SDS011;24692;45.642;13.806;2024-01-06T05:49:51;9.27;;;3.80;;
36443;SDS011;24692;45.642;13.806;2024-01-06T05:52:17;13.00;;;3.97;;
36443;SDS011;24692;45.642;13.806;2024-01-06T05:54:43;9.60;;;4.17;;
36443;SDS011;24692;45.642;13.806;2024-01-06T05:57:08;12.47;;;4.13;;
36443;SDS011;24692;45.642;13.806;2024-01-06T05:59:34;11.70;;;4.10;;
36443;SDS011;24692;45.642;13.806;2024-01-06T06:02:00;9.47;;;4.40;;
36443;SDS011;24692;45.642;13.806;2024-01-06T06:04:25;9.47;;;3.90;;
36443;SDS011;24692;45.642;13.806;2024-01-06T06:06:51;8.57;;;4.30;;
36443;SDS011;24692;45.642;13.806;2024-01-06T06:09:17;10.90;;;4.73;;
36443;SDS011;24692;45.642;13.806;2024-01-06T06:11:42;14.40;;;4.93;;
36443;SDS011;24692;45.642;13.806;2024-01-06T06:14:09;9.97;;;4.70;;
36443;SDS011;24692;45.642;13.806;2024-01-06T06:16:34;9.10;;;4.57;;
36443;SDS011;24692;45.642;13.806;2024-01-06T06:19:01;11.33;;;5.07;;
36443;SDS011;24692;45.642;13.806;2024-01-06T06:21:28;10.97;;;4.50;;
36443;SDS011;24692;45.642;13.806;2024-01-06T06:23:54;10.60;;;4.40;;
36443;SDS011;24692;45.642;13.806;2024-01-06T06:26:19;8.93;;;4.50;;
36443;SDS011;24692;45.642;13.806;2024-01-06T06:28:45;13.77;;;4.90;;
36443;SDS011;24692;45.642;13.806;2024-01-06T06:31:11;9.70;;;4.40;;
36443;SDS011;24692;45.642;13.806;2024-01-06T06:33:36;12.20;;;4.47;;
36443;SDS011;24692;45.642;13.806;2024-01-06T06:36:02;9.90;;;4.43;;
36443;SDS011;24692;45.642;13.806;2024-01-06T06:38:28;11.23;;;5.20;;
36443;SDS011;24692;45.642;13.806;2024-01-06T06:40:54;11.83;;;5.00;;
36443;SDS011;24692;45.642;13.806;2024-01-06T06:43:21;9.83;;;5.03;;
36443;SDS011;24692;45.642;13.806;2024-01-06T06:45:47;13.17;;;5.17;;
36443;SDS011;24692;45.642;13.806;2024-01-06T06:48:12;13.10;;;5.10;;
36443;SDS011;24692;45.642;13.806;2024-01-06T06:50:39;9.10;;;4.37;;
36443;SDS011;24692;45.642;13.806;2024-01-06T06:53:06;10.53;;;4.13;;
36443;SDS011;24692;45.642;13.806;2024-01-06T06:55:33;9.80;;;4.20;;
36443;SDS011;24692;45.642;13.806;2024-01-06T06:57:58;11.67;;;4.50;;
36443;SDS011;24692;45.642;13.806;2024-01-06T07:00:24;9.30;;;4.00;;
36443;SDS011;24692;45.642;13.806;2024-01-06T07:02:50;11.60;;;4.03;;
36443;SDS011;24692;45.642;13.806;2024-01-06T07:05:15;9.90;;;4.40;;
36443;SDS011;24692;45.642;13.806;2024-01-06T07:07:42;11.03;;;4.03;;
36443;SDS011;24692;45.642;13.806;2024-01-06T07:10:11;7.33;;;3.47;;
36443;SDS011;24692;45.642;13.806;2024-01-06T07:12:37;5.20;;;3.57;;
36443;SDS011;24692;45.642;13.806;2024-01-06T07:15:03;11.90;;;4.00;;
36443;SDS011;24692;45.642;13.806;2024-01-06T07:17:29;9.57;;;3.70;;
36443;SDS011;24692;45.642;13.806;2024-01-06T07:19:55;5.93;;;3.40;;
36443;SDS011;24692;45.642;13.806;2024-01-06T07:22:20;10.10;;;4.13;;
36443;SDS011;24692;45.642;13.806;2024-01-06T07:24:46;7.27;;;3.70;;
36443;SDS011;24692;45.642;13.806;2024-01-06T07:27:12;10.70;;;3.90;;
36443;SDS011;24692;45.642;13.806;2024-01-06T07:29:38;7.47;;;3.77;;
36443;SDS011;24692;45.642;13.806;2024-01-06T07:32:04;12.33;;;4.27;;
36443;SDS011;24692;45.642;13.806;2024-01-06T07:34:31;8.30;;;3.90;;
36443;SDS011;24692;45.642;13.806;2024-01-06T07:36:57;10.43;;;4.20;;
36443;SDS011;24692;45.642;13.806;2024-01-06T07:39:23;11.80;;;4.40;;
36443;SDS011;24692;45.642;13.806;2024-01-06T07:41:49;9.77;;;4.50;;
36443;SDS011;24692;45.642;13.806;2024-01-06T07:44:15;9.77;;;4.03;;
36443;SDS011;24692;45.642;13.806;2024-01-06T07:46:41;7.37;;;4.07;;
36443;SDS011;24692;45.642;13.806;2024-01-06T07:49:07;7.67;;;4.10;;
36443;SDS011;24692;45.642;13.806;2024-01-06T07:51:32;8.07;;;3.93;;
36443;SDS011;24692;45.642;13.806;2024-01-06T07:54:00;10.83;;;4.00;;
36443;SDS011;24692;45.642;13.806;2024-01-06T07:56:26;9.07;;;4.40;;
36443;SDS011;24692;45.642;13.806;2024-01-06T07:58:52;13.40;;;4.67;;
36443;SDS011;24692;45.642;13.806;2024-01-06T08:01:17;6.43;;;3.80;;
36443;SDS011;24692;45.642;13.806;2024-01-06T08:03:43;10.33;;;3.67;;
36443;SDS011;24692;45.642;13.806;2024-01-06T08:06:09;6.93;;;3.47;;
36443;SDS011;24692;45.642;13.806;2024-01-06T08:08:35;7.43;;;4.17;;
36443;SDS011;24692;45.642;13.806;2024-01-06T08:11:01;6.53;;;3.20;;
36443;SDS011;24692;45.642;13.806;2024-01-06T08:13:27;8.20;;;3.40;;
36443;SDS011;24692;45.642;13.806;2024-01-06T08:15:52;10.33;;;3.73;;
36443;SDS011;24692;45.642;13.806;2024-01-06T08:18:18;7.70;;;3.57;;
36443;SDS011;24692;45.642;13.806;2024-01-06T08:20:44;7.87;;;3.67;;
36443;SDS011;24692;45.642;13.806;2024-01-06T08:23:10;9.33;;;4.40;;
36443;SDS011;24692;45.642;13.806;2024-01-06T08:25:35;7.53;;;4.63;;
36443;SDS011;24692;45.642;13.806;2024-01-06T08:28:01;8.53;;;4.00;;
36443;SDS011;24692;45.642;13.806;2024-01-06T08:30:27;8.30;;;4.27;;
36443;SDS011;24692;45.642;13.806;2024-01-06T08:32:53;5.10;;;3.40;;
36443;SDS011;24692;45.642;13.806;2024-01-06T08:35:18;8.03;;;4.00;;
36443;SDS011;24692;45.642;13.806;2024-01-06T08:37:44;6.43;;;3.77;;
36443;SDS011;24692;45.642;13.806;2024-01-06T08:40:10;3.77;;;2.87;;
36443;SDS011;24692;45.642;13.806;2024-01-06T08:42:36;6.03;;;3.20;;
36443;SDS011;24692;45.642;13.806;2024-01-06T08:45:02;5.57;;;3.30;;
36443;SDS011;24692;45.642;13.806;2024-01-06T08:47:29;9.17;;;3.60;;
36443;SDS011;24692;45.642;13.806;2024-01-06T08:49:55;4.40;;;3.17;;
36443;SDS011;24692;45.642;13.806;2024-01-06T08:52:22;6.33;;;3.47;;
36443;SDS011;24692;45.642;13.806;2024-01-06T08:54:47;7.27;;;4.20;;
36443;SDS011;24692;45.642;13.806;2024-01-06T08:57:14;8.07;;;3.63;;
36443;SDS011;24692;45.642;13.806;2024-01-06T08:59:40;9.47;;;3.70;;
36443;SDS011;24692;45.642;13.806;2024-01-06T09:02:06;5.43;;;3.63;;
36443;SDS011;24692;45.642;13.806;2024-01-06T09:04:32;8.00;;;3.63;;
36443;SDS011;24692;45.642;13.806;2024-01-06T09:06:58;8.43;;;3.57;;
36443;SDS011;24692;45.642;13.806;2024-01-06T09:09:24;4.80;;;3.23;;
36443;SDS011;24692;45.642;13.806;2024-01-06T09:11:49;7.43;;;3.70;;
36443;SDS011;24692;45.642;13.806;2024-01-06T09:14:16;11.60;;;4.60;;
36443;SDS011;24692;45.642;13.806;2024-01-06T09:16:43;6.80;;;3.70;;
36443;SDS011;24692;45.642;13.806;2024-01-06T09:19:08;8.87;;;4.00;;
36443;SDS011;24692;45.642;13.806;2024-01-06T09:21:34;7.27;;;4.00;;
36443;SDS011;24692;45.642;13.806;2024-01-06T09:24:00;7.87;;;4.30;;
36443;SDS011;24692;45.642;13.806;2024-01-06T09:26:31;7.47;;;3.60;;
36443;SDS011;24692;45.642;13.806;2024-01-06T09:28:57;10.53;;;4.13;;
36443;SDS011;24692;45.642;13.806;2024-01-06T09:31:23;6.30;;;4.10;;
36443;SDS011;24692;45.642;13.806;2024-01-06T09:33:48;8.80;;;4.57;;
36443;SDS011;24692;45.642;13.806;2024-01-06T09:36:15;10.80;;;4.77;;
36443;SDS011;24692;45.642;13.806;2024-01-06T09:38:40;9.13;;;4.93;;
36443;SDS011;24692;45.642;13.806;2024-01-06T09:41:06;14.40;;;4.83;;
36443;SDS011;24692;45.642;13.806;2024-01-06T09:43:32;8.83;;;4.70;;
36443;SDS011;24692;45.642;13.806;2024-01-06T09:46:04;9.60;;;5.03;;
36443;SDS011;24692;45.642;13.806;2024-01-06T09:48:41;10.47;;;4.70;;
36443;SDS011;24692;45.642;13.806;2024-01-06T09:51:09;8.67;;;4.30;;
36443;SDS011;24692;45.642;13.806;2024-01-06T09:53:36;9.07;;;4.93;;
36443;SDS011;24692;45.642;13.806;2024-01-06T09:56:14;9.87;;;4.93;;
36443;SDS011;24692;45.642;13.806;2024-01-06T09:58:41;10.20;;;4.87;;
36443;SDS011;24692;45.642;13.806;2024-01-06T10:01:09;15.53;;;4.60;;
36443;SDS011;24692;45.642;13.806;2024-01-06T10:03:36;9.87;;;4.77;;
36443;SDS011;24692;45.642;13.806;2024-01-06T10:06:02;12.43;;;5.50;;
36443;SDS011;24692;45.642;13.806;2024-01-06T10:08:29;12.87;;;5.30;;
36443;SDS011;24692;45.642;13.806;2024-01-06T10:10:58;11.90;;;4.80;;
36443;SDS011;24692;45.642;13.806;2024-01-06T10:13:24;12.13;;;5.17;;
36443;SDS011;24692;45.642;13.806;2024-01-06T10:15:50;12.47;;;4.33;;
36443;SDS011;24692;45.642;13.806;2024-01-06T10:18:16;9.27;;;4.80;;
36443;SDS011;24692;45.642;13.806;2024-01-06T10:20:43;11.00;;;4.93;;
36443;SDS011;24692;45.642;13.806;2024-01-06T10:23:10;8.90;;;4.90;;
36443;SDS011;24692;45.642;13.806;2024-01-06T10:25:36;10.37;;;5.87;;
36443;SDS011;24692;45.642;13.806;2024-01-06T10:28:02;10.17;;;5.63;;
36443;SDS011;24692;45.642;13.806;2024-01-06T10:30:28;11.17;;;5.80;;
36443;SDS011;24692;45.642;13.806;2024-01-06T10:32:54;9.93;;;4.83;;
36443;SDS011;24692;45.642;13.806;2024-01-06T10:35:20;10.77;;;5.27;;
36443;SDS011;24692;45.642;13.806;2024-01-06T10:37:45;11.13;;;4.97;;
36443;SDS011;24692;45.642;13.806;2024-01-06T10:40:15;11.10;;;5.00;;
36443;SDS011;24692;45.642;13.806;2024-01-06T10:42:41;11.53;;;5.60;;
36443;SDS011;24692;45.642;13.806;2024-01-06T10:45:17;10.70;;;6.33;;
36443;SDS011;24692;45.642;13.806;2024-01-06T10:47:43;12.80;;;6.73;;
36443;SDS011;24692;45.642;13.806;2024-01-06T10:50:09;11.40;;;6.07;;
36443;SDS011;24692;45.642;13.806;2024-01-06T10:52:35;11.57;;;6.40;;
36443;SDS011;24692;45.642;13.806;2024-01-06T10:55:04;11.93;;;6.47;;
36443;SDS011;24692;45.642;13.806;2024-01-06T10:57:30;12.40;;;6.30;;
36443;SDS011;24692;45.642;13.806;2024-01-06T11:00:00;13.03;;;7.37;;
36443;SDS011;24692;45.642;13.806;2024-01-06T11:02:26;15.67;;;8.80;;
36443;SDS011;24692;45.642;13.806;2024-01-06T11:04:52;13.80;;;8.00;;
36443;SDS011;24692;45.642;13.806;2024-01-06T11:07:19;15.27;;;9.70;;
36443;SDS011;24692;45.642;13.806;2024-01-06T11:09:47;19.40;;;10.57;;
36443;SDS011;24692;45.642;13.806;2024-01-06T11:12:17;16.33;;;8.97;;
36443;SDS011;24692;45.642;13.806;2024-01-06T11:14:43;11.87;;;6.60;;
36443;SDS011;24692;45.642;13.806;2024-01-06T11:17:11;13.33;;;4.90;;
36443;SDS011;24692;45.642;13.806;2024-01-06T11:24:47;10.47;;;5.13;;
36443;SDS011;24692;45.642;13.806;2024-01-06T11:27:17;11.43;;;5.93;;
36443;SDS011;24692;45.642;13.806;2024-01-06T11:29:45;10.83;;;5.87;;
36443;SDS011;24692;45.642;13.806;2024-01-06T11:32:20;14.30;;;5.77;;
36443;SDS011;24692;45.642;13.806;2024-01-06T11:34:50;12.63;;;5.93;;
36443;SDS011;24692;45.642;13.806;2024-01-06T11:37:18;11.80;;;5.83;;
36443;SDS011;24692;45.642;13.806;2024-01-06T11:40:30;11.47;;;5.83;;
36443;SDS011;24692;45.642;13.806;2024-01-06T11:43:04;11.17;;;5.30;;
36443;SDS011;24692;45.642;13.806;2024-01-06T11:45:35;12.23;;;6.40;;
36443;SDS011;24692;45.642;13.806;2024-01-06T11:48:03;12.13;;;5.80;;
36443;SDS011;24692;45.642;13.806;2024-01-06T11:50:37;14.50;;;6.43;;
36443;SDS011;24692;45.642;13.806;2024-01-06T11:53:04;12.20;;;6.43;;
36443;SDS011;24692;45.642;13.806;2024-01-06T11:55:31;16.67;;;8.63;;
36443;SDS011;24692;45.642;13.806;2024-01-06T11:57:57;15.40;;;9.47;;
36443;SDS011;24692;45.642;13.806;2024-01-06T12:00:27;15.83;;;7.40;;
36443;SDS011;24692;45.642;13.806;2024-01-06T12:02:56;14.60;;;7.43;;
36443;SDS011;24692;45.642;13.806;2024-01-06T12:05:26;10.50;;;4.93;;
36443;SDS011;24692;45.642;13.806;2024-01-06T12:07:53;11.17;;;5.07;;
36443;SDS011;24692;45.642;13.806;2024-01-06T12:10:20;11.23;;;5.37;;
36443;SDS011;24692;45.642;13.806;2024-01-06T12:13:05;9.13;;;5.60;;
36443;SDS011;24692;45.642;13.806;2024-01-06T12:15:35;8.93;;;5.47;;
36443;SDS011;24692;45.642;13.806;2024-01-06T12:18:04;12.07;;;5.43;;
36443;SDS011;24692;45.642;13.806;2024-01-06T12:20:30;23.03;;;6.67;;
36443;SDS011;24692;45.642;13.806;2024-01-06T12:22:57;13.67;;;6.50;;
36443;SDS011;24692;45.642;13.806;2024-01-06T12:25:24;16.03;;;6.10;;
36443;SDS011;24692;45.642;13.806;2024-01-06T12:27:51;17.77;;;6.83;;
36443;SDS011;24692;45.642;13.806;2024-01-06T12:30:19;14.10;;;6.40;;
36443;SDS011;24692;45.642;13.806;2024-01-06T12:32:46;10.10;;;5.77;;
36443;SDS011;24692;45.642;13.806;2024-01-06T12:35:15;10.83;;;5.57;;
36443;SDS011;24692;45.642;13.806;2024-01-06T12:37:41;10.50;;;5.10;;
36443;SDS011;24692;45.642;13.806;2024-01-06T12:40:08;12.03;;;5.80;;
36443;SDS011;24692;45.642;13.806;2024-01-06T12:42:34;15.67;;;6.10;;
36443;SDS011;24692;45.642;13.806;2024-01-06T12:45:01;11.50;;;5.67;;
36443;SDS011;24692;45.642;13.806;2024-01-06T12:47:27;11.30;;;5.50;;
36443;SDS011;24692;45.642;13.806;2024-01-06T12:49:53;13.67;;;5.83;;
36443;SDS011;24692;45.642;13.806;2024-01-06T12:52:19;11.53;;;7.07;;
36443;SDS011;24692;45.642;13.806;2024-01-06T12:54:44;14.83;;;7.47;;
36443;SDS011;24692;45.642;13.806;2024-01-06T12:57:11;13.47;;;7.30;;
36443;SDS011;24692;45.642;13.806;2024-01-06T12:59:36;12.10;;;7.07;;
36443;SDS011;24692;45.642;13.806;2024-01-06T13:02:02;14.07;;;7.67;;
36443;SDS011;24692;45.642;13.806;2024-01-06T13:04:28;12.17;;;6.57;;
36443;SDS011;24692;45.642;13.806;2024-01-06T13:06:53;12.20;;;7.03;;
36443;SDS011;24692;45.642;13.806;2024-01-06T13:09:19;18.87;;;10.40;;
36443;SDS011;24692;45.642;13.806;2024-01-06T13:11:48;17.57;;;9.90;;
36443;SDS011;24692;45.642;13.806;2024-01-06T13:14:15;16.87;;;10.43;;
36443;SDS011;24692;45.642;13.806;2024-01-06T13:16:41;18.60;;;11.10;;
36443;SDS011;24692;45.642;13.806;2024-01-06T13:19:07;15.80;;;9.17;;
36443;SDS011;24692;45.642;13.806;2024-01-06T13:21:33;14.03;;;6.57;;
36443;SDS011;24692;45.642;13.806;2024-01-06T13:24:00;10.63;;;5.53;;
36443;SDS011;24692;45.642;13.806;2024-01-06T13:26:27;8.40;;;5.37;;
36443;SDS011;24692;45.642;13.806;2024-01-06T13:28:53;12.07;;;5.60;;
36443;SDS011;24692;45.642;13.806;2024-01-06T13:31:19;10.13;;;5.47;;
36443;SDS011;24692;45.642;13.806;2024-01-06T13:33:45;11.13;;;5.20;;
36443;SDS011;24692;45.642;13.806;2024-01-06T13:36:11;10.47;;;5.90;;
36443;SDS011;24692;45.642;13.806;2024-01-06T13:38:37;17.93;;;8.00;;
36443;SDS011;24692;45.642;13.806;2024-01-06T13:41:03;10.63;;;8.07;;
36443;SDS011;24692;45.642;13.806;2024-01-06T13:43:29;8.73;;;5.60;;
36443;SDS011;24692;45.642;13.806;2024-01-06T13:45:57;8.57;;;5.37;;
36443;SDS011;24692;45.642;13.806;2024-01-06T13:48:23;8.60;;;5.10;;
36443;SDS011;24692;45.642;13.806;2024-01-06T13:50:48;8.37;;;4.40;;
36443;SDS011;24692;45.642;13.806;2024-01-06T13:53:14;8.00;;;4.20;;
36443;SDS011;24692;45.642;13.806;2024-01-06T13:55:40;6.63;;;3.90;;
36443;SDS011;24692;45.642;13.806;2024-01-06T13:58:06;5.07;;;3.60;;
36443;SDS011;24692;45.642;13.806;2024-01-06T14:00:34;7.07;;;3.73;;
36443;SDS011;24692;45.642;13.806;2024-01-06T14:03:00;5.93;;;3.70;;
36443;SDS011;24692;45.642;13.806;2024-01-06T14:05:26;6.73;;;4.33;;
36443;SDS011;24692;45.642;13.806;2024-01-06T14:07:53;6.67;;;4.03;;
36443;SDS011;24692;45.642;13.806;2024-01-06T14:10:19;7.07;;;4.90;;
36443;SDS011;24692;45.642;13.806;2024-01-06T14:12:45;10.57;;;6.77;;
36443;SDS011;24692;45.642;13.806;2024-01-06T14:15:10;7.33;;;4.47;;
36443;SDS011;24692;45.642;13.806;2024-01-06T14:17:37;7.47;;;4.60;;
36443;SDS011;24692;45.642;13.806;2024-01-06T14:20:03;5.57;;;3.10;;
36443;SDS011;24692;45.642;13.806;2024-01-06T14:22:29;4.80;;;2.90;;
36443;SDS011;24692;45.642;13.806;2024-01-06T14:24:55;4.93;;;2.80;;
36443;SDS011;24692;45.642;13.806;2024-01-06T14:27:20;5.13;;;3.03;;